Airfield :
LOGIN :

Register | Disclaimer

   EN    FR    IT 

 










Legend :    VFR   Marginal VFR   IFR   Intensive IFR   Very Intensive IFR
Visi :
Ceiling :
>= 8 km
>= 3000ft
5 to 8 km
1000 to 3000 ft
1500m to 5 km
500 to 1000 ft
800 to 1500m
200 to 500 ft
< 800m
< 200 ft
Symbols :   Thunderstorms  Fog  Heavy snow  Heavy precipitations  Wind > 20 kt
SIGMETs :     Misc.  Thunderstorms  Icing  Turbulence  Mountain Waves  Volcanic Ashes






- Airport Elevation : 184 ft
- IATA code : BRU


EBBR - Bruxelles

CURRENT METAR :
  • 092220Z 12003KT CAVOK 24/16 Q1015 NOSIG

EXPIRED METARs :
  • 092150Z 11005KT CAVOK 25/16 Q1015 NOSIG
  • 092120Z 11005KT CAVOK 26/16 Q1015 NOSIG
  • 092050Z 12005KT CAVOK 26/15 Q1015 NOSIG
  • 092020Z 11004KT CAVOK 26/15 Q1015 NOSIG
  • 091950Z 12006KT CAVOK 27/15 Q1015 NOSIG

TAF TAF EBBR
Valid from the 09 at 18:00 until the 11 at 00:00 UTC


091700Z 0918/1024 09005KT CAVOK
PROB30
TEMPO 0918/0921 VRB15G25KT 2500 TSRA
PROB30
TEMPO 1012/1021 VRB15G25KT 2500 TSRA



MET'MAP, your aeronautical weather chart ! - Copyright ORBIFLY December 2007 - Disclaimer

ORBIFLY MET'MAP TEAM :

Programming & Development : Alexandra Zaïnal
Concept & original design : Baudouin d'Aumeries
Assistance for programming : Marc-Olivier Méhu
Technical & hardware support : Manuel Goepfert

Contact : metmap@orbifly.com




SOURCES & CREDITS :

   NOAA